sensor_id;sensor_type;location;lat;lon;timestamp;P1;durP1;ratioP1;P2;durP2;ratioP2
46835;SDS011;32573;51.290;6.926;2022-09-12T00:01:19;14.90;;;7.90;;
46835;SDS011;32573;51.290;6.926;2022-09-12T00:03:50;14.65;;;7.75;;
46835;SDS011;32573;51.290;6.926;2022-09-12T00:06:21;16.98;;;8.30;;
46835;SDS011;32573;51.290;6.926;2022-09-12T00:08:50;16.98;;;8.80;;
46835;SDS011;32573;51.290;6.926;2022-09-12T00:11:22;15.98;;;7.95;;
46835;SDS011;32573;51.290;6.926;2022-09-12T00:13:54;17.10;;;8.70;;
46835;SDS011;32573;51.290;6.926;2022-09-12T00:16:24;15.00;;;8.18;;
46835;SDS011;32573;51.290;6.926;2022-09-12T00:18:53;15.73;;;8.00;;
46835;SDS011;32573;51.290;6.926;2022-09-12T00:21:22;17.70;;;8.00;;
46835;SDS011;32573;51.290;6.926;2022-09-12T00:23:50;15.43;;;7.88;;
46835;SDS011;32573;51.290;6.926;2022-09-12T00:26:20;15.50;;;8.45;;
46835;SDS011;32573;51.290;6.926;2022-09-12T00:28:50;17.35;;;8.65;;
46835;SDS011;32573;51.290;6.926;2022-09-12T00:31:19;17.65;;;7.75;;
46835;SDS011;32573;51.290;6.926;2022-09-12T00:33:50;13.90;;;8.05;;
46835;SDS011;32573;51.290;6.926;2022-09-12T00:36:19;15.32;;;7.95;;
46835;SDS011;32573;51.290;6.926;2022-09-12T00:38:49;13.95;;;7.38;;
46835;SDS011;32573;51.290;6.926;2022-09-12T00:41:19;15.00;;;7.47;;
46835;SDS011;32573;51.290;6.926;2022-09-12T00:43:51;14.48;;;7.40;;
46835;SDS011;32573;51.290;6.926;2022-09-12T00:46:26;15.15;;;7.28;;
46835;SDS011;32573;51.290;6.926;2022-09-12T00:48:59;15.60;;;7.78;;
46835;SDS011;32573;51.290;6.926;2022-09-12T00:51:31;15.35;;;7.57;;
46835;SDS011;32573;51.290;6.926;2022-09-12T00:54:04;14.60;;;7.25;;
46835;SDS011;32573;51.290;6.926;2022-09-12T00:56:36;13.48;;;7.30;;
46835;SDS011;32573;51.290;6.926;2022-09-12T00:59:09;13.90;;;7.43;;
46835;SDS011;32573;51.290;6.926;2022-09-12T01:01:45;14.05;;;7.45;;
46835;SDS011;32573;51.290;6.926;2022-09-12T01:04:16;14.90;;;7.65;;
46835;SDS011;32573;51.290;6.926;2022-09-12T01:06:47;13.98;;;7.68;;
46835;SDS011;32573;51.290;6.926;2022-09-12T01:09:18;13.90;;;6.88;;
46835;SDS011;32573;51.290;6.926;2022-09-12T01:11:48;13.93;;;7.30;;
46835;SDS011;32573;51.290;6.926;2022-09-12T01:14:20;14.25;;;7.32;;
46835;SDS011;32573;51.290;6.926;2022-09-12T01:16:48;12.98;;;6.80;;
46835;SDS011;32573;51.290;6.926;2022-09-12T01:19:24;12.80;;;7.28;;
46835;SDS011;32573;51.290;6.926;2022-09-12T01:22:10;14.63;;;6.80;;
46835;SDS011;32573;51.290;6.926;2022-09-12T01:25:01;14.07;;;6.75;;
46835;SDS011;32573;51.290;6.926;2022-09-12T01:27:43;13.95;;;7.47;;
46835;SDS011;32573;51.290;6.926;2022-09-12T01:30:25;12.40;;;6.75;;
46835;SDS011;32573;51.290;6.926;2022-09-12T01:33:31;14.32;;;6.70;;
46835;SDS011;32573;51.290;6.926;2022-09-12T01:36:10;12.85;;;6.70;;
46835;SDS011;32573;51.290;6.926;2022-09-12T01:38:51;13.98;;;6.65;;
46835;SDS011;32573;51.290;6.926;2022-09-12T01:41:26;15.13;;;7.32;;
46835;SDS011;32573;51.290;6.926;2022-09-12T01:43:59;11.70;;;6.72;;
46835;SDS011;32573;51.290;6.926;2022-09-12T01:46:36;12.50;;;6.72;;
46835;SDS011;32573;51.290;6.926;2022-09-12T01:49:13;14.23;;;7.25;;
46835;SDS011;32573;51.290;6.926;2022-09-12T01:51:46;13.20;;;6.82;;
46835;SDS011;32573;51.290;6.926;2022-09-12T01:54:24;12.82;;;6.70;;
46835;SDS011;32573;51.290;6.926;2022-09-12T01:56:56;13.93;;;6.82;;
46835;SDS011;32573;51.290;6.926;2022-09-12T01:59:29;13.48;;;7.25;;
46835;SDS011;32573;51.290;6.926;2022-09-12T02:02:03;14.00;;;6.97;;
46835;SDS011;32573;51.290;6.926;2022-09-12T02:04:37;14.38;;;6.68;;
46835;SDS011;32573;51.290;6.926;2022-09-12T02:07:15;12.82;;;6.63;;
46835;SDS011;32573;51.290;6.926;2022-09-12T02:09:48;13.07;;;6.63;;
46835;SDS011;32573;51.290;6.926;2022-09-12T02:12:23;12.25;;;6.45;;
46835;SDS011;32573;51.290;6.926;2022-09-12T02:14:57;13.07;;;6.93;;
46835;SDS011;32573;51.290;6.926;2022-09-12T02:17:33;13.98;;;7.18;;
46835;SDS011;32573;51.290;6.926;2022-09-12T02:22:47;11.65;;;6.30;;
46835;SDS011;32573;51.290;6.926;2022-09-12T02:25:17;11.90;;;6.85;;
46835;SDS011;32573;51.290;6.926;2022-09-12T02:30:22;13.85;;;6.07;;
46835;SDS011;32573;51.290;6.926;2022-09-12T02:32:55;12.93;;;6.82;;
46835;SDS011;32573;51.290;6.926;2022-09-12T02:35:31;12.13;;;6.47;;
46835;SDS011;32573;51.290;6.926;2022-09-12T02:38:06;13.52;;;6.53;;
46835;SDS011;32573;51.290;6.926;2022-09-12T02:40:38;13.02;;;6.70;;
46835;SDS011;32573;51.290;6.926;2022-09-12T02:43:08;13.20;;;6.88;;
46835;SDS011;32573;51.290;6.926;2022-09-12T02:45:36;14.35;;;6.45;;
46835;SDS011;32573;51.290;6.926;2022-09-12T02:48:07;14.02;;;7.32;;
46835;SDS011;32573;51.290;6.926;2022-09-12T02:50:40;14.15;;;7.22;;
46835;SDS011;32573;51.290;6.926;2022-09-12T02:53:09;13.40;;;6.85;;
46835;SDS011;32573;51.290;6.926;2022-09-12T02:55:38;13.65;;;7.00;;
46835;SDS011;32573;51.290;6.926;2022-09-12T02:58:09;12.65;;;6.65;;
46835;SDS011;32573;51.290;6.926;2022-09-12T03:00:45;12.98;;;6.68;;
46835;SDS011;32573;51.290;6.926;2022-09-12T03:03:27;12.40;;;6.70;;
46835;SDS011;32573;51.290;6.926;2022-09-12T03:06:11;13.25;;;6.85;;
46835;SDS011;32573;51.290;6.926;2022-09-12T03:08:50;14.02;;;6.35;;
46835;SDS011;32573;51.290;6.926;2022-09-12T03:14:22;12.30;;;6.60;;
46835;SDS011;32573;51.290;6.926;2022-09-12T03:17:02;13.45;;;6.00;;
46835;SDS011;32573;51.290;6.926;2022-09-12T03:19:39;10.90;;;5.68;;
46835;SDS011;32573;51.290;6.926;2022-09-12T03:22:25;13.57;;;6.20;;
46835;SDS011;32573;51.290;6.926;2022-09-12T03:27:32;11.80;;;5.93;;
46835;SDS011;32573;51.290;6.926;2022-09-12T03:30:03;11.75;;;6.20;;
46835;SDS011;32573;51.290;6.926;2022-09-12T03:32:45;12.15;;;6.82;;
46835;SDS011;32573;51.290;6.926;2022-09-12T03:35:17;11.70;;;6.13;;
46835;SDS011;32573;51.290;6.926;2022-09-12T03:37:49;12.02;;;6.38;;
46835;SDS011;32573;51.290;6.926;2022-09-12T03:40:19;12.10;;;6.05;;
46835;SDS011;32573;51.290;6.926;2022-09-12T03:42:47;12.05;;;6.20;;
46835;SDS011;32573;51.290;6.926;2022-09-12T03:45:16;13.73;;;6.22;;
46835;SDS011;32573;51.290;6.926;2022-09-12T03:47:44;12.98;;;6.32;;
46835;SDS011;32573;51.290;6.926;2022-09-12T03:50:12;13.30;;;6.13;;
46835;SDS011;32573;51.290;6.926;2022-09-12T03:52:42;13.10;;;6.60;;
46835;SDS011;32573;51.290;6.926;2022-09-12T03:55:11;12.55;;;6.53;;
46835;SDS011;32573;51.290;6.926;2022-09-12T03:57:39;12.25;;;6.20;;
46835;SDS011;32573;51.290;6.926;2022-09-12T04:00:08;11.85;;;5.72;;
46835;SDS011;32573;51.290;6.926;2022-09-12T04:02:39;11.85;;;6.30;;
46835;SDS011;32573;51.290;6.926;2022-09-12T04:05:08;11.60;;;5.88;;
46835;SDS011;32573;51.290;6.926;2022-09-12T04:07:36;12.30;;;6.15;;
46835;SDS011;32573;51.290;6.926;2022-09-12T04:10:06;10.98;;;5.72;;
46835;SDS011;32573;51.290;6.926;2022-09-12T04:12:35;12.20;;;6.25;;
46835;SDS011;32573;51.290;6.926;2022-09-12T04:15:05;12.25;;;6.20;;
46835;SDS011;32573;51.290;6.926;2022-09-12T04:17:34;13.32;;;6.45;;
46835;SDS011;32573;51.290;6.926;2022-09-12T04:20:03;10.63;;;5.72;;
46835;SDS011;32573;51.290;6.926;2022-09-12T04:22:32;10.60;;;5.70;;
46835;SDS011;32573;51.290;6.926;2022-09-12T04:25:01;12.18;;;6.10;;
46835;SDS011;32573;51.290;6.926;2022-09-12T04:27:31;12.27;;;6.30;;
46835;SDS011;32573;51.290;6.926;2022-09-12T04:29:59;11.05;;;6.18;;
46835;SDS011;32573;51.290;6.926;2022-09-12T04:32:28;12.00;;;6.13;;
46835;SDS011;32573;51.290;6.926;2022-09-12T04:34:57;12.05;;;6.50;;
46835;SDS011;32573;51.290;6.926;2022-09-12T04:37:25;12.45;;;6.15;;
46835;SDS011;32573;51.290;6.926;2022-09-12T04:39:54;12.40;;;6.07;;
46835;SDS011;32573;51.290;6.926;2022-09-12T04:42:23;12.10;;;5.85;;
46835;SDS011;32573;51.290;6.926;2022-09-12T04:44:53;11.63;;;5.95;;
46835;SDS011;32573;51.290;6.926;2022-09-12T04:47:21;13.27;;;5.97;;
46835;SDS011;32573;51.290;6.926;2022-09-12T04:49:50;11.23;;;5.88;;
46835;SDS011;32573;51.290;6.926;2022-09-12T04:52:18;10.38;;;5.18;;
46835;SDS011;32573;51.290;6.926;2022-09-12T04:54:46;11.48;;;5.53;;
46835;SDS011;32573;51.290;6.926;2022-09-12T04:57:15;10.98;;;5.85;;
46835;SDS011;32573;51.290;6.926;2022-09-12T04:59:43;10.07;;;5.80;;
46835;SDS011;32573;51.290;6.926;2022-09-12T05:02:13;10.32;;;5.70;;
46835;SDS011;32573;51.290;6.926;2022-09-12T05:04:42;10.57;;;5.82;;
46835;SDS011;32573;51.290;6.926;2022-09-12T05:07:12;11.07;;;5.72;;
46835;SDS011;32573;51.290;6.926;2022-09-12T05:09:40;11.50;;;5.78;;
46835;SDS011;32573;51.290;6.926;2022-09-12T05:12:09;11.23;;;5.68;;
46835;SDS011;32573;51.290;6.926;2022-09-12T05:14:37;10.43;;;5.57;;
46835;SDS011;32573;51.290;6.926;2022-09-12T05:17:06;9.73;;;5.35;;
46835;SDS011;32573;51.290;6.926;2022-09-12T05:19:36;11.05;;;5.75;;
46835;SDS011;32573;51.290;6.926;2022-09-12T05:22:04;9.40;;;5.15;;
46835;SDS011;32573;51.290;6.926;2022-09-12T05:24:33;10.88;;;5.80;;
46835;SDS011;32573;51.290;6.926;2022-09-12T05:27:03;12.02;;;5.70;;
46835;SDS011;32573;51.290;6.926;2022-09-12T05:29:32;11.68;;;5.75;;
46835;SDS011;32573;51.290;6.926;2022-09-12T05:32:00;9.40;;;4.68;;
46835;SDS011;32573;51.290;6.926;2022-09-12T05:34:30;10.40;;;5.15;;
46835;SDS011;32573;51.290;6.926;2022-09-12T05:37:00;9.88;;;5.18;;
46835;SDS011;32573;51.290;6.926;2022-09-12T05:39:28;9.75;;;5.22;;
46835;SDS011;32573;51.290;6.926;2022-09-12T05:41:56;8.27;;;4.72;;
46835;SDS011;32573;51.290;6.926;2022-09-12T05:44:25;8.82;;;4.97;;
46835;SDS011;32573;51.290;6.926;2022-09-12T05:46:53;12.48;;;5.50;;
46835;SDS011;32573;51.290;6.926;2022-09-12T05:49:22;9.23;;;5.25;;
46835;SDS011;32573;51.290;6.926;2022-09-12T05:51:50;9.98;;;5.28;;
46835;SDS011;32573;51.290;6.926;2022-09-12T05:54:20;9.98;;;5.10;;
46835;SDS011;32573;51.290;6.926;2022-09-12T05:56:48;8.90;;;4.80;;
46835;SDS011;32573;51.290;6.926;2022-09-12T05:59:17;10.90;;;5.20;;
46835;SDS011;32573;51.290;6.926;2022-09-12T06:01:47;10.90;;;5.15;;
46835;SDS011;32573;51.290;6.926;2022-09-12T06:04:15;8.45;;;5.07;;
46835;SDS011;32573;51.290;6.926;2022-09-12T06:06:44;8.75;;;4.80;;
46835;SDS011;32573;51.290;6.926;2022-09-12T06:09:14;8.07;;;4.90;;
46835;SDS011;32573;51.290;6.926;2022-09-12T06:11:45;9.50;;;4.68;;
46835;SDS011;32573;51.290;6.926;2022-09-12T06:14:14;9.05;;;4.78;;
46835;SDS011;32573;51.290;6.926;2022-09-12T06:16:45;10.40;;;5.28;;
46835;SDS011;32573;51.290;6.926;2022-09-12T06:19:15;10.50;;;4.88;;
46835;SDS011;32573;51.290;6.926;2022-09-12T06:21:44;8.93;;;4.65;;
46835;SDS011;32573;51.290;6.926;2022-09-12T06:24:14;8.50;;;4.68;;
46835;SDS011;32573;51.290;6.926;2022-09-12T06:26:44;8.30;;;4.57;;
46835;SDS011;32573;51.290;6.926;2022-09-12T06:29:13;7.95;;;4.32;;
46835;SDS011;32573;51.290;6.926;2022-09-12T06:31:42;8.82;;;4.93;;
46835;SDS011;32573;51.290;6.926;2022-09-12T06:34:13;9.50;;;4.90;;
46835;SDS011;32573;51.290;6.926;2022-09-12T06:36:43;10.05;;;5.40;;
46835;SDS011;32573;51.290;6.926;2022-09-12T06:39:13;7.82;;;4.65;;
46835;SDS011;32573;51.290;6.926;2022-09-12T06:41:44;9.02;;;4.68;;
46835;SDS011;32573;51.290;6.926;2022-09-12T06:44:14;8.23;;;4.68;;
46835;SDS011;32573;51.290;6.926;2022-09-12T06:46:43;8.52;;;4.57;;
46835;SDS011;32573;51.290;6.926;2022-09-12T06:49:12;7.97;;;4.75;;
46835;SDS011;32573;51.290;6.926;2022-09-12T06:51:41;8.63;;;4.50;;
46835;SDS011;32573;51.290;6.926;2022-09-12T06:54:11;8.27;;;4.47;;
46835;SDS011;32573;51.290;6.926;2022-09-12T06:56:40;9.05;;;4.75;;
46835;SDS011;32573;51.290;6.926;2022-09-12T06:59:10;10.07;;;4.78;;
46835;SDS011;32573;51.290;6.926;2022-09-12T07:01:38;9.23;;;4.88;;
46835;SDS011;32573;51.290;6.926;2022-09-12T07:04:08;12.05;;;5.40;;
46835;SDS011;32573;51.290;6.926;2022-09-12T07:06:38;7.97;;;4.55;;
46835;SDS011;32573;51.290;6.926;2022-09-12T07:09:08;9.55;;;5.35;;
46835;SDS011;32573;51.290;6.926;2022-09-12T07:11:39;10.18;;;5.00;;
46835;SDS011;32573;51.290;6.926;2022-09-12T07:14:10;9.45;;;5.15;;
46835;SDS011;32573;51.290;6.926;2022-09-12T07:16:40;8.55;;;4.65;;
46835;SDS011;32573;51.290;6.926;2022-09-12T07:19:09;9.02;;;5.63;;
46835;SDS011;32573;51.290;6.926;2022-09-12T07:21:38;9.82;;;5.13;;
46835;SDS011;32573;51.290;6.926;2022-09-12T07:24:07;8.77;;;4.45;;
46835;SDS011;32573;51.290;6.926;2022-09-12T07:26:37;8.30;;;4.63;;
46835;SDS011;32573;51.290;6.926;2022-09-12T07:29:12;9.88;;;5.57;;
46835;SDS011;32573;51.290;6.926;2022-09-12T07:32:02;9.80;;;5.00;;
46835;SDS011;32573;51.290;6.926;2022-09-12T07:34:31;9.57;;;5.43;;
46835;SDS011;32573;51.290;6.926;2022-09-12T07:37:00;8.55;;;4.50;;
46835;SDS011;32573;51.290;6.926;2022-09-12T07:39:28;8.38;;;4.55;;
46835;SDS011;32573;51.290;6.926;2022-09-12T07:41:56;9.93;;;5.15;;
46835;SDS011;32573;51.290;6.926;2022-09-12T07:44:27;9.60;;;5.05;;
46835;SDS011;32573;51.290;6.926;2022-09-12T07:46:56;9.27;;;5.00;;
46835;SDS011;32573;51.290;6.926;2022-09-12T07:49:24;10.10;;;5.28;;
46835;SDS011;32573;51.290;6.926;2022-09-12T07:51:53;7.90;;;4.47;;
46835;SDS011;32573;51.290;6.926;2022-09-12T07:54:22;11.63;;;6.20;;
46835;SDS011;32573;51.290;6.926;2022-09-12T07:56:51;9.90;;;5.70;;
46835;SDS011;32573;51.290;6.926;2022-09-12T07:59:22;10.82;;;5.90;;
46835;SDS011;32573;51.290;6.926;2022-09-12T08:02:14;9.25;;;5.20;;
46835;SDS011;32573;51.290;6.926;2022-09-12T08:04:44;9.30;;;4.80;;
46835;SDS011;32573;51.290;6.926;2022-09-12T08:07:14;9.38;;;5.40;;
46835;SDS011;32573;51.290;6.926;2022-09-12T08:09:44;9.30;;;5.30;;
46835;SDS011;32573;51.290;6.926;2022-09-12T08:12:13;8.65;;;4.93;;
46835;SDS011;32573;51.290;6.926;2022-09-12T08:14:43;13.02;;;7.00;;
46835;SDS011;32573;51.290;6.926;2022-09-12T08:17:11;11.07;;;6.20;;
46835;SDS011;32573;51.290;6.926;2022-09-12T08:19:41;10.20;;;5.75;;
46835;SDS011;32573;51.290;6.926;2022-09-12T08:22:10;10.93;;;5.50;;
46835;SDS011;32573;51.290;6.926;2022-09-12T08:24:39;11.55;;;5.95;;
46835;SDS011;32573;51.290;6.926;2022-09-12T08:27:07;9.23;;;5.22;;
46835;SDS011;32573;51.290;6.926;2022-09-12T08:29:35;8.60;;;4.97;;
46835;SDS011;32573;51.290;6.926;2022-09-12T08:32:04;9.50;;;5.10;;
46835;SDS011;32573;51.290;6.926;2022-09-12T08:34:32;11.70;;;6.65;;
46835;SDS011;32573;51.290;6.926;2022-09-12T08:37:02;9.68;;;5.18;;
46835;SDS011;32573;51.290;6.926;2022-09-12T08:39:31;10.43;;;5.18;;
46835;SDS011;32573;51.290;6.926;2022-09-12T08:42:00;12.73;;;7.22;;
46835;SDS011;32573;51.290;6.926;2022-09-12T08:47:24;9.55;;;5.55;;
46835;SDS011;32573;51.290;6.926;2022-09-12T08:49:57;11.93;;;5.75;;
46835;SDS011;32573;51.290;6.926;2022-09-12T08:52:34;11.98;;;5.28;;
46835;SDS011;32573;51.290;6.926;2022-09-12T08:55:26;11.52;;;6.45;;
46835;SDS011;32573;51.290;6.926;2022-09-12T08:57:59;9.27;;;5.35;;
46835;SDS011;32573;51.290;6.926;2022-09-12T09:00:32;11.10;;;5.95;;
46835;SDS011;32573;51.290;6.926;2022-09-12T09:06:05;8.73;;;4.80;;
46835;SDS011;32573;51.290;6.926;2022-09-12T09:08:47;7.50;;;4.47;;
46835;SDS011;32573;51.290;6.926;2022-09-12T09:11:33;6.53;;;3.70;;
46835;SDS011;32573;51.290;6.926;2022-09-12T09:14:13;7.45;;;4.57;;
46835;SDS011;32573;51.290;6.926;2022-09-12T09:17:18;10.70;;;5.88;;
46835;SDS011;32573;51.290;6.926;2022-09-12T09:19:53;7.65;;;4.00;;
46835;SDS011;32573;51.290;6.926;2022-09-12T09:22:28;7.45;;;3.97;;
46835;SDS011;32573;51.290;6.926;2022-09-12T09:25:07;8.45;;;4.28;;
46835;SDS011;32573;51.290;6.926;2022-09-12T09:27:50;7.32;;;4.15;;
46835;SDS011;32573;51.290;6.926;2022-09-12T09:30:24;7.60;;;4.40;;
46835;SDS011;32573;51.290;6.926;2022-09-12T09:32:53;7.15;;;4.22;;
46835;SDS011;32573;51.290;6.926;2022-09-12T09:35:27;8.25;;;5.07;;
46835;SDS011;32573;51.290;6.926;2022-09-12T09:38:09;7.72;;;4.32;;
46835;SDS011;32573;51.290;6.926;2022-09-12T09:40:52;9.02;;;5.20;;
46835;SDS011;32573;51.290;6.926;2022-09-12T09:43:34;7.88;;;4.70;;
46835;SDS011;32573;51.290;6.926;2022-09-12T09:46:04;9.40;;;5.13;;
46835;SDS011;32573;51.290;6.926;2022-09-12T09:48:33;9.15;;;5.18;;
46835;SDS011;32573;51.290;6.926;2022-09-12T09:51:04;6.85;;;4.18;;
46835;SDS011;32573;51.290;6.926;2022-09-12T09:53:37;9.07;;;5.05;;
46835;SDS011;32573;51.290;6.926;2022-09-12T09:56:12;7.32;;;4.45;;
46835;SDS011;32573;51.290;6.926;2022-09-12T09:58:49;10.35;;;6.80;;
46835;SDS011;32573;51.290;6.926;2022-09-12T10:01:17;9.20;;;5.10;;
46835;SDS011;32573;51.290;6.926;2022-09-12T10:03:47;8.90;;;4.68;;
46835;SDS011;32573;51.290;6.926;2022-09-12T10:06:28;6.88;;;4.50;;
46835;SDS011;32573;51.290;6.926;2022-09-12T10:09:04;7.72;;;4.50;;
46835;SDS011;32573;51.290;6.926;2022-09-12T10:11:50;7.90;;;4.60;;
46835;SDS011;32573;51.290;6.926;2022-09-12T10:14:27;10.13;;;5.30;;
46835;SDS011;32573;51.290;6.926;2022-09-12T10:17:01;6.68;;;4.07;;
46835;SDS011;32573;51.290;6.926;2022-09-12T10:19:48;7.43;;;4.00;;
46835;SDS011;32573;51.290;6.926;2022-09-12T10:22:36;6.32;;;3.67;;
46835;SDS011;32573;51.290;6.926;2022-09-12T10:25:06;6.90;;;3.63;;
46835;SDS011;32573;51.290;6.926;2022-09-12T10:27:40;6.88;;;4.13;;
46835;SDS011;32573;51.290;6.926;2022-09-12T10:30:14;6.30;;;3.95;;
46835;SDS011;32573;51.290;6.926;2022-09-12T10:32:45;5.65;;;3.30;;
46835;SDS011;32573;51.290;6.926;2022-09-12T10:35:17;5.68;;;3.30;;
46835;SDS011;32573;51.290;6.926;2022-09-12T10:37:49;5.85;;;3.60;;
46835;SDS011;32573;51.290;6.926;2022-09-12T10:40:21;4.68;;;2.95;;
46835;SDS011;32573;51.290;6.926;2022-09-12T10:42:55;4.90;;;2.88;;
46835;SDS011;32573;51.290;6.926;2022-09-12T10:45:26;6.13;;;3.13;;
46835;SDS011;32573;51.290;6.926;2022-09-12T10:47:56;5.25;;;3.10;;
46835;SDS011;32573;51.290;6.926;2022-09-12T10:50:34;4.80;;;2.65;;
46835;SDS011;32573;51.290;6.926;2022-09-12T10:53:13;4.80;;;2.80;;
46835;SDS011;32573;51.290;6.926;2022-09-12T10:56:00;5.30;;;3.20;;
46835;SDS011;32573;51.290;6.926;2022-09-12T10:58:41;5.13;;;2.72;;
46835;SDS011;32573;51.290;6.926;2022-09-12T11:01:27;3.72;;;2.40;;
46835;SDS011;32573;51.290;6.926;2022-09-12T11:04:18;4.78;;;2.70;;
46835;SDS011;32573;51.290;6.926;2022-09-12T11:06:55;4.10;;;2.42;;
46835;SDS011;32573;51.290;6.926;2022-09-12T11:09:33;3.95;;;2.33;;
46835;SDS011;32573;51.290;6.926;2022-09-12T11:12:10;4.18;;;2.42;;
46835;SDS011;32573;51.290;6.926;2022-09-12T11:14:53;4.40;;;2.30;;
46835;SDS011;32573;51.290;6.926;2022-09-12T11:17:35;4.07;;;2.30;;
46835;SDS011;32573;51.290;6.926;2022-09-12T11:20:20;4.50;;;2.20;;
46835;SDS011;32573;51.290;6.926;2022-09-12T11:26:07;4.18;;;2.17;;
46835;SDS011;32573;51.290;6.926;2022-09-12T11:28:50;5.15;;;2.95;;
46835;SDS011;32573;51.290;6.926;2022-09-12T11:34:35;4.43;;;2.70;;
46835;SDS011;32573;51.290;6.926;2022-09-12T11:37:17;3.92;;;2.38;;
46835;SDS011;32573;51.290;6.926;2022-09-12T11:40:02;3.75;;;2.20;;
46835;SDS011;32573;51.290;6.926;2022-09-12T11:42:43;4.75;;;2.50;;
46835;SDS011;32573;51.290;6.926;2022-09-12T11:45:15;4.10;;;2.40;;
46835;SDS011;32573;51.290;6.926;2022-09-12T11:47:47;3.92;;;2.30;;
46835;SDS011;32573;51.290;6.926;2022-09-12T11:50:20;4.15;;;2.40;;
46835;SDS011;32573;51.290;6.926;2022-09-12T11:52:52;3.92;;;2.30;;
46835;SDS011;32573;51.290;6.926;2022-09-12T11:55:24;4.30;;;2.40;;
46835;SDS011;32573;51.290;6.926;2022-09-12T11:57:58;3.67;;;2.20;;
46835;SDS011;32573;51.290;6.926;2022-09-12T12:00:27;3.70;;;1.92;;
46835;SDS011;32573;51.290;6.926;2022-09-12T12:03:01;3.88;;;2.00;;
46835;SDS011;32573;51.290;6.926;2022-09-12T12:05:38;3.55;;;1.90;;
46835;SDS011;32573;51.290;6.926;2022-09-12T12:08:10;3.50;;;2.08;;
46835;SDS011;32573;51.290;6.926;2022-09-12T12:10:40;3.83;;;2.17;;
46835;SDS011;32573;51.290;6.926;2022-09-12T12:13:15;4.32;;;2.30;;
46835;SDS011;32573;51.290;6.926;2022-09-12T12:15:46;3.28;;;1.80;;
46835;SDS011;32573;51.290;6.926;2022-09-12T12:18:18;4.03;;;2.20;;
46835;SDS011;32573;51.290;6.926;2022-09-12T12:20:52;3.40;;;1.92;;
46835;SDS011;32573;51.290;6.926;2022-09-12T12:23:23;4.00;;;2.17;;
46835;SDS011;32573;51.290;6.926;2022-09-12T12:25:55;3.35;;;1.83;;
46835;SDS011;32573;51.290;6.926;2022-09-12T12:31:26;3.60;;;2.05;;
46835;SDS011;32573;51.290;6.926;2022-09-12T12:36:55;3.65;;;2.28;;
46835;SDS011;32573;51.290;6.926;2022-09-12T12:51:42;4.53;;;2.40;;
46835;SDS011;32573;51.290;6.926;2022-09-12T12:54:34;3.85;;;2.25;;
46835;SDS011;32573;51.290;6.926;2022-09-12T12:57:27;3.47;;;1.95;;
46835;SDS011;32573;51.290;6.926;2022-09-12T13:00:25;4.15;;;2.20;;
46835;SDS011;32573;51.290;6.926;2022-09-12T13:02:56;4.28;;;2.53;;
46835;SDS011;32573;51.290;6.926;2022-09-12T13:05:28;3.63;;;2.00;;
46835;SDS011;32573;51.290;6.926;2022-09-12T13:08:06;3.70;;;2.08;;
46835;SDS011;32573;51.290;6.926;2022-09-12T13:10:38;4.20;;;2.20;;
46835;SDS011;32573;51.290;6.926;2022-09-12T13:13:19;3.88;;;2.42;;
46835;SDS011;32573;51.290;6.926;2022-09-12T13:15:52;3.90;;;2.10;;
46835;SDS011;32573;51.290;6.926;2022-09-12T13:18:22;4.13;;;2.10;;
46835;SDS011;32573;51.290;6.926;2022-09-12T13:20:58;3.97;;;2.10;;
46835;SDS011;32573;51.290;6.926;2022-09-12T13:23:34;3.67;;;2.00;;
46835;SDS011;32573;51.290;6.926;2022-09-12T13:26:08;3.83;;;2.17;;
46835;SDS011;32573;51.290;6.926;2022-09-12T13:28:39;4.07;;;2.33;;
46835;SDS011;32573;51.290;6.926;2022-09-12T13:31:10;3.55;;;1.95;;
46835;SDS011;32573;51.290;6.926;2022-09-12T13:33:47;3.70;;;1.90;;
46835;SDS011;32573;51.290;6.926;2022-09-12T13:39:18;3.38;;;1.90;;
46835;SDS011;32573;51.290;6.926;2022-09-12T13:45:02;3.88;;;2.25;;
46835;SDS011;32573;51.290;6.926;2022-09-12T13:47:34;3.70;;;2.33;;
46835;SDS011;32573;51.290;6.926;2022-09-12T13:50:05;3.92;;;2.30;;
46835;SDS011;32573;51.290;6.926;2022-09-12T13:52:36;3.95;;;2.17;;
46835;SDS011;32573;51.290;6.926;2022-09-12T13:55:05;3.78;;;2.13;;
46835;SDS011;32573;51.290;6.926;2022-09-12T13:57:56;3.33;;;1.95;;
46835;SDS011;32573;51.290;6.926;2022-09-12T14:00:26;3.55;;;2.05;;
46835;SDS011;32573;51.290;6.926;2022-09-12T14:02:57;4.22;;;2.22;;
46835;SDS011;32573;51.290;6.926;2022-09-12T14:05:45;3.92;;;2.33;;
46835;SDS011;32573;51.290;6.926;2022-09-12T14:08:22;3.38;;;1.80;;
46835;SDS011;32573;51.290;6.926;2022-09-12T14:10:51;3.60;;;2.00;;
46835;SDS011;32573;51.290;6.926;2022-09-12T14:13:23;3.70;;;2.00;;
46835;SDS011;32573;51.290;6.926;2022-09-12T14:15:53;4.60;;;2.42;;
46835;SDS011;32573;51.290;6.926;2022-09-12T14:18:23;3.58;;;2.00;;
46835;SDS011;32573;51.290;6.926;2022-09-12T14:20:54;4.30;;;2.20;;
46835;SDS011;32573;51.290;6.926;2022-09-12T14:23:27;3.80;;;2.00;;
46835;SDS011;32573;51.290;6.926;2022-09-12T14:25:59;3.45;;;1.90;;
46835;SDS011;32573;51.290;6.926;2022-09-12T14:28:32;3.72;;;1.98;;
46835;SDS011;32573;51.290;6.926;2022-09-12T14:31:04;4.50;;;1.75;;
46835;SDS011;32573;51.290;6.926;2022-09-12T14:33:45;3.60;;;1.85;;
46835;SDS011;32573;51.290;6.926;2022-09-12T14:36:24;4.20;;;2.10;;
46835;SDS011;32573;51.290;6.926;2022-09-12T14:38:55;3.40;;;1.80;;
46835;SDS011;32573;51.290;6.926;2022-09-12T14:41:27;3.03;;;1.58;;
46835;SDS011;32573;51.290;6.926;2022-09-12T14:44:00;3.50;;;2.00;;
46835;SDS011;32573;51.290;6.926;2022-09-12T14:46:34;3.78;;;1.88;;
46835;SDS011;32573;51.290;6.926;2022-09-12T14:49:05;4.53;;;2.28;;
46835;SDS011;32573;51.290;6.926;2022-09-12T14:51:37;3.30;;;1.85;;
46835;SDS011;32573;51.290;6.926;2022-09-12T14:57:05;3.50;;;1.90;;
46835;SDS011;32573;51.290;6.926;2022-09-12T14:59:46;3.55;;;1.70;;
46835;SDS011;32573;51.290;6.926;2022-09-12T15:02:20;3.20;;;1.80;;
46835;SDS011;32573;51.290;6.926;2022-09-12T15:04:52;3.05;;;1.65;;
46835;SDS011;32573;51.290;6.926;2022-09-12T15:07:24;3.40;;;1.73;;
46835;SDS011;32573;51.290;6.926;2022-09-12T15:09:58;3.38;;;1.70;;
46835;SDS011;32573;51.290;6.926;2022-09-12T15:12:28;3.10;;;1.83;;
46835;SDS011;32573;51.290;6.926;2022-09-12T15:14:58;3.22;;;1.60;;
46835;SDS011;32573;51.290;6.926;2022-09-12T15:17:30;3.20;;;1.67;;
46835;SDS011;32573;51.290;6.926;2022-09-12T15:19:58;2.90;;;1.60;;
46835;SDS011;32573;51.290;6.926;2022-09-12T15:22:26;3.55;;;1.67;;
46835;SDS011;32573;51.290;6.926;2022-09-12T15:24:55;2.55;;;1.30;;
46835;SDS011;32573;51.290;6.926;2022-09-12T15:27:23;4.25;;;1.70;;
46835;SDS011;32573;51.290;6.926;2022-09-12T15:29:52;3.80;;;1.50;;
46835;SDS011;32573;51.290;6.926;2022-09-12T15:32:26;2.90;;;1.50;;
46835;SDS011;32573;51.290;6.926;2022-09-12T15:34:55;3.00;;;1.50;;
46835;SDS011;32573;51.290;6.926;2022-09-12T15:37:24;3.17;;;1.73;;
46835;SDS011;32573;51.290;6.926;2022-09-12T15:39:52;4.10;;;1.65;;
46835;SDS011;32573;51.290;6.926;2022-09-12T15:42:23;3.88;;;1.80;;
46835;SDS011;32573;51.290;6.926;2022-09-12T15:44:55;3.05;;;1.52;;
46835;SDS011;32573;51.290;6.926;2022-09-12T15:47:29;3.60;;;1.80;;
46835;SDS011;32573;51.290;6.926;2022-09-12T15:49:58;3.13;;;1.65;;
46835;SDS011;32573;51.290;6.926;2022-09-12T15:52:26;3.30;;;1.60;;
46835;SDS011;32573;51.290;6.926;2022-09-12T15:54:54;3.53;;;1.90;;
46835;SDS011;32573;51.290;6.926;2022-09-12T15:57:23;3.03;;;1.50;;
46835;SDS011;32573;51.290;6.926;2022-09-12T15:59:51;3.78;;;1.90;;
46835;SDS011;32573;51.290;6.926;2022-09-12T16:02:19;3.60;;;1.70;;
46835;SDS011;32573;51.290;6.926;2022-09-12T16:04:49;4.47;;;1.70;;
46835;SDS011;32573;51.290;6.926;2022-09-12T16:07:20;3.33;;;1.60;;